createdAt,value
2022-11-13T00:01:26.733Z,12.97
2022-11-13T00:03:55.226Z,12.95
2022-11-13T00:06:23.718Z,12.94
2022-11-13T00:08:56.883Z,12.93
2022-11-13T00:11:25.287Z,12.92
2022-11-13T00:13:53.673Z,12.91
2022-11-13T00:16:22.887Z,12.90
2022-11-13T00:18:51.331Z,12.89
2022-11-13T00:21:21.951Z,12.86
2022-11-13T00:23:51.578Z,12.85
2022-11-13T00:26:23.432Z,12.84
2022-11-13T00:28:54.873Z,12.81
2022-11-13T00:31:23.820Z,12.81
2022-11-13T00:34:14.060Z,12.79
2022-11-13T00:36:41.052Z,12.79
2022-11-13T00:39:10.440Z,12.77
2022-11-13T00:41:40.244Z,12.78
2022-11-13T00:44:08.938Z,12.79
2022-11-13T00:46:37.302Z,12.79
2022-11-13T00:49:05.861Z,12.79
2022-11-13T00:51:34.459Z,12.81
2022-11-13T00:54:02.909Z,12.80
2022-11-13T00:56:31.338Z,12.80
2022-11-13T00:59:01.079Z,12.80
2022-11-13T01:01:29.726Z,12.81
2022-11-13T01:03:58.496Z,12.81
2022-11-13T01:06:28.961Z,12.80
2022-11-13T01:08:58.550Z,12.78
2022-11-13T01:11:29.914Z,12.78
2022-11-13T01:14:00.114Z,12.78
2022-11-13T01:16:30.269Z,12.76
2022-11-13T01:18:58.968Z,12.75
2022-11-13T01:21:29.265Z,12.74
2022-11-13T01:23:58.065Z,12.73
2022-11-13T01:26:29.733Z,12.71
2022-11-13T01:29:00.997Z,12.71
2022-11-13T01:31:31.754Z,12.68
2022-11-13T01:34:00.244Z,12.68
2022-11-13T01:36:30.377Z,12.67
2022-11-13T01:38:58.960Z,12.65
2022-11-13T01:41:29.986Z,12.63
2022-11-13T01:44:01.419Z,12.61
2022-11-13T01:46:32.560Z,12.56
2022-11-13T01:49:14.240Z,12.55
2022-11-13T01:51:48.793Z,12.53
2022-11-13T01:54:22.690Z,12.51
2022-11-13T01:56:52.036Z,12.50
2022-11-13T01:59:26.933Z,12.47
2022-11-13T02:01:57.274Z,12.44
2022-11-13T02:04:26.138Z,12.42
2022-11-13T02:07:01.648Z,12.39
2022-11-13T02:09:34.838Z,12.37
2022-11-13T02:12:03.434Z,12.33
2022-11-13T02:14:34.209Z,12.29
2022-11-13T02:17:07.308Z,12.25
2022-11-13T02:19:40.767Z,12.21
2022-11-13T02:22:17.979Z,12.17
2022-11-13T02:24:54.444Z,12.14
2022-11-13T02:27:37.657Z,12.08
2022-11-13T02:30:23.587Z,12.06
2022-11-13T02:32:55.713Z,12.02
2022-11-13T02:35:28.486Z,11.97
2022-11-13T02:37:59.252Z,11.95
2022-11-13T02:40:30.492Z,11.92
2022-11-13T02:42:58.833Z,11.90
2022-11-13T02:45:27.227Z,11.87
2022-11-13T02:47:55.594Z,11.83
2022-11-13T02:50:24.611Z,11.79
2022-11-13T02:52:53.108Z,11.75
2022-11-13T02:55:21.663Z,11.72
2022-11-13T02:57:51.414Z,11.69
2022-11-13T03:00:20.519Z,11.64
2022-11-13T03:02:50.066Z,11.61
2022-11-13T03:05:18.741Z,11.56
2022-11-13T03:07:47.090Z,11.54
2022-11-13T03:10:16.000Z,11.54
2022-11-13T03:12:44.425Z,11.56
2022-11-13T03:15:14.263Z,11.60
2022-11-13T03:17:42.655Z,11.63
2022-11-13T03:20:11.572Z,11.66
2022-11-13T03:22:39.926Z,11.70
2022-11-13T03:25:10.937Z,11.76
2022-11-13T03:27:39.624Z,11.82
2022-11-13T03:30:10.055Z,11.85
2022-11-13T03:32:39.761Z,11.93
2022-11-13T03:35:09.654Z,11.99
2022-11-13T03:37:38.010Z,12.06
2022-11-13T03:40:08.298Z,12.10
2022-11-13T03:42:36.602Z,12.15
2022-11-13T03:45:05.695Z,12.20
2022-11-13T03:47:34.307Z,12.24
2022-11-13T03:50:04.068Z,12.29
2022-11-13T03:52:32.450Z,12.36
2022-11-13T03:55:00.792Z,12.42
2022-11-13T03:57:29.144Z,12.47
2022-11-13T03:59:57.491Z,12.52
2022-11-13T04:02:25.863Z,12.56
2022-11-13T04:04:54.238Z,12.56
2022-11-13T04:07:24.015Z,12.58
2022-11-13T04:09:52.351Z,12.61
2022-11-13T04:12:20.715Z,12.63
2022-11-13T04:14:49.085Z,12.64
2022-11-13T04:17:17.529Z,12.64
2022-11-13T04:19:45.881Z,12.67
2022-11-13T04:22:14.290Z,12.69
2022-11-13T04:24:44.018Z,12.74
2022-11-13T04:27:12.393Z,12.78
2022-11-13T04:29:40.772Z,12.80
2022-11-13T04:32:09.324Z,12.83
2022-11-13T04:34:37.696Z,12.87
2022-11-13T04:37:06.084Z,12.89
2022-11-13T04:39:34.457Z,12.91
2022-11-13T04:42:21.342Z,12.91
2022-11-13T04:44:49.700Z,12.93
2022-11-13T04:47:18.074Z,12.95
2022-11-13T04:49:46.425Z,12.97
2022-11-13T04:52:14.928Z,12.98
2022-11-13T04:54:43.293Z,12.99
2022-11-13T04:57:13.024Z,13.01
2022-11-13T04:59:41.425Z,13.01
2022-11-13T05:02:09.838Z,13.01
2022-11-13T05:04:38.290Z,13.01
2022-11-13T05:07:06.744Z,13.02
2022-11-13T05:09:35.161Z,13.04
2022-11-13T05:12:05.086Z,13.08
2022-11-13T05:14:35.247Z,13.11
2022-11-13T05:17:03.760Z,13.12
2022-11-13T05:19:33.704Z,13.13
2022-11-13T05:22:02.909Z,13.12
2022-11-13T05:24:31.566Z,13.10
2022-11-13T05:26:59.966Z,13.08
2022-11-13T05:29:28.296Z,13.07
2022-11-13T05:31:58.011Z,13.06
2022-11-13T05:34:26.288Z,13.06
2022-11-13T05:36:54.637Z,13.06
2022-11-13T05:39:23.110Z,13.06
2022-11-13T05:41:51.458Z,13.05
2022-11-13T05:44:19.795Z,13.02
2022-11-13T05:46:48.162Z,13.01
2022-11-13T05:49:17.991Z,12.99
2022-11-13T05:51:46.357Z,13.00
2022-11-13T05:54:14.861Z,12.98
2022-11-13T05:56:43.261Z,12.99
2022-11-13T05:59:11.759Z,12.97
2022-11-13T06:01:41.798Z,12.94
2022-11-13T06:04:11.047Z,12.90
2022-11-13T06:06:40.872Z,12.82
2022-11-13T06:09:09.447Z,12.76
2022-11-13T06:11:37.786Z,12.72
2022-11-13T06:14:06.193Z,12.65
2022-11-13T06:16:37.778Z,12.59
2022-11-13T06:19:09.036Z,12.54
2022-11-13T06:21:41.667Z,12.49
2022-11-13T06:24:13.513Z,12.48
2022-11-13T06:26:42.252Z,12.47
2022-11-13T06:29:13.716Z,12.48
2022-11-13T06:31:42.082Z,12.50
2022-11-13T06:34:10.408Z,12.49
2022-11-13T06:36:40.812Z,12.48
2022-11-13T06:39:10.780Z,12.46
2022-11-13T06:41:40.758Z,12.44
2022-11-13T06:44:09.438Z,12.44
2022-11-13T06:46:38.019Z,12.45
2022-11-13T06:49:06.361Z,12.46
2022-11-13T06:51:34.709Z,12.49
2022-11-13T06:54:04.682Z,12.52
2022-11-13T06:56:33.088Z,12.51
2022-11-13T06:59:01.881Z,12.48
2022-11-13T07:01:32.504Z,12.42
2022-11-13T07:04:00.898Z,12.39
2022-11-13T07:06:29.228Z,12.35
2022-11-13T07:08:57.667Z,12.31
2022-11-13T07:11:27.391Z,12.27
2022-11-13T07:13:55.754Z,12.26
2022-11-13T07:16:24.118Z,12.23
2022-11-13T07:18:53.600Z,12.22
2022-11-13T07:21:23.991Z,12.23
2022-11-13T07:23:52.679Z,12.24
2022-11-13T07:26:21.406Z,12.22
2022-11-13T07:28:51.318Z,12.21
2022-11-13T07:31:19.945Z,12.19
2022-11-13T07:33:51.505Z,12.20
2022-11-13T07:36:20.015Z,12.26
2022-11-13T07:38:48.398Z,12.33
2022-11-13T07:41:16.775Z,12.37
2022-11-13T07:43:45.192Z,12.42
2022-11-13T07:46:15.015Z,12.48
2022-11-13T07:48:43.447Z,12.53
2022-11-13T07:51:11.826Z,12.58
2022-11-13T07:53:40.158Z,12.63
2022-11-13T07:56:09.564Z,12.68
2022-11-13T07:58:37.982Z,12.75
2022-11-13T08:01:08.014Z,12.83
2022-11-13T08:03:37.831Z,12.92
2022-11-13T08:06:08.794Z,12.99
2022-11-13T08:08:37.281Z,13.04
2022-11-13T08:11:07.504Z,13.11
2022-11-13T08:13:36.630Z,13.16
2022-11-13T08:16:06.042Z,13.22
2022-11-13T08:18:34.675Z,13.28
2022-11-13T08:21:10.592Z,13.33
2022-11-13T08:23:43.528Z,13.41
2022-11-13T08:26:12.355Z,13.46
2022-11-13T08:28:41.385Z,13.51
2022-11-13T08:31:13.477Z,13.55
2022-11-13T08:33:43.154Z,13.59
2022-11-13T08:36:13.235Z,13.64
2022-11-13T08:38:41.609Z,13.69
2022-11-13T08:41:10.172Z,13.73
2022-11-13T08:43:38.544Z,13.79
2022-11-13T08:46:07.550Z,13.85
2022-11-13T08:48:35.991Z,13.93
2022-11-13T08:51:04.893Z,14.00
2022-11-13T08:53:34.623Z,14.08
2022-11-13T08:56:03.419Z,14.13
2022-11-13T08:58:32.200Z,14.20
2022-11-13T09:01:05.228Z,14.27
2022-11-13T09:03:36.223Z,14.35
2022-11-13T09:06:07.569Z,14.44
2022-11-13T09:08:37.299Z,14.54
2022-11-13T09:11:06.276Z,14.61
2022-11-13T09:13:41.207Z,14.69
2022-11-13T09:16:12.327Z,14.75
2022-11-13T09:18:40.717Z,14.83
2022-11-13T09:21:09.042Z,14.90
2022-11-13T09:23:38.939Z,14.95
2022-11-13T09:26:07.345Z,15.01
2022-11-13T09:28:35.831Z,15.06
2022-11-13T09:31:06.159Z,15.12
2022-11-13T09:33:34.808Z,15.22
2022-11-13T09:36:03.550Z,15.29
2022-11-13T09:38:32.251Z,15.37
2022-11-13T09:41:06.433Z,15.49
2022-11-13T09:43:41.340Z,15.62
2022-11-13T09:46:18.382Z,15.67
2022-11-13T09:48:54.025Z,15.74
2022-11-13T09:51:27.502Z,15.82
2022-11-13T09:53:55.960Z,15.91
2022-11-13T09:56:34.562Z,15.99
2022-11-13T09:59:16.651Z,16.07
2022-11-13T10:01:58.015Z,16.13
2022-11-13T10:04:41.232Z,16.23
2022-11-13T10:07:30.079Z,16.28
2022-11-13T10:10:18.514Z,16.33
2022-11-13T10:12:51.031Z,16.42
2022-11-13T10:15:19.740Z,16.47
2022-11-13T10:17:56.649Z,16.50
2022-11-13T10:20:34.099Z,16.52
2022-11-13T10:23:14.297Z,16.52
2022-11-13T10:25:44.757Z,16.58
2022-11-13T10:31:07.190Z,16.66
2022-11-13T10:33:35.637Z,16.70
2022-11-13T10:36:17.409Z,16.76
2022-11-13T10:38:50.313Z,16.84
2022-11-13T10:41:21.373Z,16.91
2022-11-13T10:43:57.753Z,17.00
2022-11-13T10:46:29.995Z,17.07
2022-11-13T10:48:58.459Z,17.22
2022-11-13T10:51:29.842Z,17.40
2022-11-13T10:54:00.160Z,17.64
2022-11-13T10:56:30.659Z,17.90
2022-11-13T10:59:11.386Z,18.25
2022-11-13T11:01:40.624Z,18.70
2022-11-13T11:04:14.851Z,19.02
2022-11-13T11:09:33.686Z,19.59
2022-11-13T11:12:30.149Z,19.93
2022-11-13T11:15:11.523Z,20.37
2022-11-13T11:17:46.368Z,20.83
2022-11-13T11:20:41.344Z,21.23
2022-11-13T11:23:28.239Z,21.57
2022-11-13T11:26:01.109Z,21.78
2022-11-13T11:28:37.128Z,21.97
2022-11-13T11:31:20.794Z,22.27
2022-11-13T11:33:54.737Z,22.66
2022-11-13T11:36:32.606Z,22.87
2022-11-13T11:39:14.318Z,23.10
2022-11-13T11:41:47.488Z,23.32
2022-11-13T11:44:23.648Z,23.46
2022-11-13T11:46:53.417Z,23.58
2022-11-13T11:49:24.115Z,23.68
2022-11-13T11:52:10.670Z,23.83
2022-11-13T11:54:43.900Z,24.04
2022-11-13T11:57:36.636Z,24.30
2022-11-13T12:00:10.943Z,24.58
2022-11-13T12:03:31.153Z,24.78
2022-11-13T12:06:15.858Z,25.01
2022-11-13T12:08:51.851Z,25.18
2022-11-13T12:11:30.500Z,25.34
2022-11-13T12:14:11.240Z,25.58
2022-11-13T12:16:50.295Z,25.84
2022-11-13T12:19:32.681Z,26.12
2022-11-13T12:22:12.144Z,26.36
2022-11-13T12:25:01.706Z,26.52
2022-11-13T12:27:38.250Z,26.60
2022-11-13T12:30:17.738Z,26.62
2022-11-13T12:33:17.954Z,26.58
2022-11-13T12:35:51.902Z,26.61
2022-11-13T12:38:34.671Z,26.74
2022-11-13T12:41:15.839Z,26.79
2022-11-13T12:44:06.241Z,26.86
2022-11-13T12:46:37.718Z,26.81
2022-11-13T12:49:33.228Z,26.58
2022-11-13T12:52:06.519Z,26.54
2022-11-13T12:54:37.721Z,26.51
2022-11-13T12:57:20.969Z,26.45
2022-11-13T12:59:53.880Z,26.00
2022-11-13T13:02:48.266Z,25.22
2022-11-13T13:05:31.671Z,24.42
2022-11-13T13:08:27.287Z,23.59
2022-11-13T13:11:13.650Z,22.91
2022-11-13T13:13:52.911Z,22.30
2022-11-13T13:16:27.546Z,21.79
2022-11-13T13:19:08.726Z,21.30
2022-11-13T13:21:45.549Z,20.88
2022-11-13T13:24:34.874Z,20.49
2022-11-13T13:27:03.537Z,20.19
2022-11-13T13:29:34.639Z,19.89
2022-11-13T13:32:17.982Z,19.59
2022-11-13T13:35:01.954Z,19.30
2022-11-13T13:37:40.852Z,19.09
2022-11-13T13:40:29.102Z,18.87
2022-11-13T13:43:21.054Z,18.68
2022-11-13T13:46:02.877Z,18.52
2022-11-13T13:48:33.219Z,18.39
2022-11-13T13:51:03.163Z,18.26
2022-11-13T13:53:35.391Z,18.14
2022-11-13T13:56:11.111Z,17.99
2022-11-13T13:58:40.886Z,17.89
2022-11-13T14:01:19.344Z,17.77
2022-11-13T14:03:48.443Z,17.65
2022-11-13T14:06:23.385Z,17.52
2022-11-13T14:08:51.802Z,17.42
2022-11-13T14:11:26.987Z,17.32
2022-11-13T14:13:55.466Z,17.23
2022-11-13T14:16:23.910Z,17.12
2022-11-13T14:18:52.279Z,17.03
2022-11-13T14:21:25.071Z,16.94
2022-11-13T14:23:55.499Z,16.84
2022-11-13T14:26:25.381Z,16.74
2022-11-13T14:28:59.178Z,16.66
2022-11-13T14:31:35.431Z,16.58
2022-11-13T14:34:10.684Z,16.51
2022-11-13T14:36:40.952Z,16.43
2022-11-13T14:39:23.308Z,16.36
2022-11-13T14:41:57.787Z,16.29
2022-11-13T14:44:31.915Z,16.22
2022-11-13T14:47:03.407Z,16.14
2022-11-13T14:49:34.685Z,16.06
2022-11-13T14:52:05.342Z,16.01
2022-11-13T14:55:08.290Z,15.94
2022-11-13T14:57:26.446Z,15.86
2022-11-13T14:59:55.180Z,15.81
2022-11-13T15:02:24.180Z,15.74
2022-11-13T15:04:53.307Z,15.69
2022-11-13T15:07:31.822Z,15.59
2022-11-13T15:10:01.156Z,15.55
2022-11-13T15:12:31.156Z,15.48
2022-11-13T15:15:00.186Z,15.41
2022-11-13T15:17:28.910Z,15.37
2022-11-13T15:19:57.852Z,15.30
2022-11-13T15:22:28.825Z,15.26
2022-11-13T15:24:58.692Z,15.20
2022-11-13T15:27:28.292Z,15.15
2022-11-13T15:29:59.051Z,15.10
2022-11-13T15:32:29.087Z,15.06
2022-11-13T15:34:57.656Z,15.01
2022-11-13T15:37:26.880Z,14.97
2022-11-13T15:39:55.271Z,14.92
2022-11-13T15:42:31.080Z,14.87
2022-11-13T15:45:01.928Z,14.83
2022-11-13T15:47:36.301Z,14.78
2022-11-13T15:50:16.203Z,14.74
2022-11-13T15:52:49.121Z,14.69
2022-11-13T15:55:26.689Z,14.65
2022-11-13T15:57:56.620Z,14.60
2022-11-13T16:00:29.391Z,14.53
2022-11-13T16:03:00.104Z,14.49
2022-11-13T16:05:30.110Z,14.43
2022-11-13T16:07:59.290Z,14.38
2022-11-13T16:10:28.339Z,14.32
2022-11-13T16:12:57.342Z,14.28
2022-11-13T16:15:27.994Z,14.23
2022-11-13T16:17:59.029Z,14.19
2022-11-13T16:20:28.912Z,14.14
2022-11-13T16:22:58.803Z,14.09
2022-11-13T16:25:28.251Z,14.04
2022-11-13T16:27:57.749Z,14.00
2022-11-13T16:30:29.389Z,13.94
2022-11-13T16:32:58.980Z,13.92
2022-11-13T16:35:29.991Z,13.88
2022-11-13T16:37:58.599Z,13.84
2022-11-13T16:40:29.666Z,13.80
2022-11-13T16:42:59.274Z,13.77
2022-11-13T16:45:31.964Z,13.74
2022-11-13T16:48:00.799Z,13.71
2022-11-13T16:50:34.000Z,13.68
2022-11-13T16:53:03.094Z,13.66
2022-11-13T16:55:33.085Z,13.62
2022-11-13T16:58:03.355Z,13.61
2022-11-13T17:00:34.521Z,13.58
2022-11-13T17:03:04.443Z,13.56
2022-11-13T17:05:33.402Z,13.52
2022-11-13T17:08:03.284Z,13.51
2022-11-13T17:10:36.596Z,13.50
2022-11-13T17:13:09.124Z,13.47
2022-11-13T17:15:48.946Z,13.45
2022-11-13T17:18:19.317Z,13.43
2022-11-13T17:20:52.707Z,13.40
2022-11-13T17:23:22.272Z,13.39
2022-11-13T17:25:51.491Z,13.38
2022-11-13T17:28:21.273Z,13.35
2022-11-13T17:30:56.435Z,13.34
2022-11-13T17:33:30.472Z,13.32
2022-11-13T17:36:01.544Z,13.30
2022-11-13T17:38:31.582Z,13.29
2022-11-13T17:41:08.459Z,13.26
2022-11-13T17:43:38.384Z,13.24
2022-11-13T17:46:13.200Z,13.24
2022-11-13T17:48:42.916Z,13.25
2022-11-13T17:51:15.274Z,13.23
2022-11-13T17:53:46.288Z,13.22
2022-11-13T17:56:16.595Z,13.19
2022-11-13T17:58:47.604Z,13.17
2022-11-13T18:01:23.336Z,13.15
2022-11-13T18:03:58.953Z,13.13
2022-11-13T18:06:29.361Z,13.12
2022-11-13T18:08:59.248Z,13.11
2022-11-13T18:11:30.530Z,13.09
2022-11-13T18:14:00.085Z,13.07
2022-11-13T18:16:35.490Z,13.04
2022-11-13T18:19:08.906Z,13.01
2022-11-13T18:21:44.141Z,12.97
2022-11-13T18:24:18.457Z,12.95
2022-11-13T18:26:49.157Z,12.93
2022-11-13T18:29:19.096Z,12.88
2022-11-13T18:31:49.666Z,12.87
2022-11-13T18:34:20.158Z,12.85
2022-11-13T18:36:50.434Z,12.83
2022-11-13T18:39:19.503Z,12.81
2022-11-13T18:41:48.716Z,12.79
2022-11-13T18:44:19.189Z,12.77
2022-11-13T18:46:50.691Z,12.76
2022-11-13T18:49:22.015Z,12.74
2022-11-13T18:51:52.059Z,12.72
2022-11-13T18:54:22.323Z,12.70
2022-11-13T18:56:53.385Z,12.69
2022-11-13T18:59:23.207Z,12.67
2022-11-13T19:01:55.163Z,12.65
2022-11-13T19:04:27.569Z,12.65
2022-11-13T19:07:00.029Z,12.64
2022-11-13T19:09:29.919Z,12.64
2022-11-13T19:11:59.609Z,12.63
2022-11-13T19:14:31.829Z,12.61
2022-11-13T19:17:04.051Z,12.62
2022-11-13T19:19:35.525Z,12.61
2022-11-13T19:22:05.586Z,12.62
2022-11-13T19:24:41.643Z,12.60
2022-11-13T19:27:15.034Z,12.59
2022-11-13T19:29:46.092Z,12.56
2022-11-13T19:32:17.566Z,12.59
2022-11-13T19:34:48.278Z,12.60
2022-11-13T19:37:19.421Z,12.61
2022-11-13T19:39:49.931Z,12.63
2022-11-13T19:42:20.870Z,12.63
2022-11-13T19:44:50.495Z,12.64
2022-11-13T19:47:23.424Z,12.65
2022-11-13T19:49:56.792Z,12.66
2022-11-13T19:52:27.289Z,12.67
2022-11-13T19:54:57.350Z,12.65
2022-11-13T19:57:27.032Z,12.65
2022-11-13T19:59:56.147Z,12.63
2022-11-13T20:02:34.445Z,12.64
2022-11-13T20:05:04.498Z,12.64
2022-11-13T20:07:34.033Z,12.64
2022-11-13T20:10:04.295Z,12.64
2022-11-13T20:12:34.098Z,12.64
2022-11-13T20:15:04.734Z,12.65
2022-11-13T20:17:37.428Z,12.64
2022-11-13T20:20:10.846Z,12.63
2022-11-13T20:22:40.636Z,12.63
2022-11-13T20:25:11.605Z,12.63
2022-11-13T20:27:46.039Z,12.61
2022-11-13T20:30:17.982Z,12.60
2022-11-13T20:32:49.347Z,12.58
2022-11-13T20:35:20.858Z,12.56
2022-11-13T20:37:51.912Z,12.54
2022-11-13T20:40:25.920Z,12.50
2022-11-13T20:42:56.232Z,12.47
2022-11-13T20:45:27.415Z,12.45
2022-11-13T20:47:58.631Z,12.42
2022-11-13T20:50:27.926Z,12.40
2022-11-13T20:52:58.278Z,12.37
2022-11-13T20:55:27.814Z,12.35
2022-11-13T20:57:58.937Z,12.32
2022-11-13T21:00:28.459Z,12.30
2022-11-13T21:03:00.735Z,12.28
2022-11-13T21:05:30.226Z,12.25
2022-11-13T21:07:59.358Z,12.24
2022-11-13T21:10:28.929Z,12.21
2022-11-13T21:12:58.812Z,12.21
2022-11-13T21:15:27.772Z,12.18
2022-11-13T21:17:59.470Z,12.17
2022-11-13T21:20:28.741Z,12.17
2022-11-13T21:23:00.422Z,12.17
2022-11-13T21:25:30.020Z,12.15
2022-11-13T21:28:00.572Z,12.15
2022-11-13T21:30:29.251Z,12.13
2022-11-13T21:33:01.900Z,12.11
2022-11-13T21:35:31.910Z,12.10
2022-11-13T21:38:00.440Z,12.12
2022-11-13T21:40:29.413Z,12.10
2022-11-13T21:42:58.134Z,12.11
2022-11-13T21:45:26.732Z,12.11
2022-11-13T21:47:55.159Z,12.13
2022-11-13T21:50:24.965Z,12.12
2022-11-13T21:52:53.417Z,12.12
2022-11-13T21:55:21.897Z,12.11
2022-11-13T21:57:50.269Z,12.11
2022-11-13T22:00:19.646Z,12.11
2022-11-13T22:02:48.086Z,12.12
2022-11-13T22:05:16.870Z,12.13
2022-11-13T22:07:46.626Z,12.13
2022-11-13T22:10:15.367Z,12.13
2022-11-13T22:12:43.713Z,12.13
2022-11-13T22:15:12.880Z,12.12
2022-11-13T22:17:41.858Z,12.12
2022-11-13T22:20:11.375Z,12.11
2022-11-13T22:22:39.739Z,12.11
2022-11-13T22:25:10.458Z,12.11
2022-11-13T22:27:38.825Z,12.11
2022-11-13T22:30:08.933Z,12.12
2022-11-13T22:32:37.322Z,12.12
2022-11-13T22:35:06.990Z,12.12
2022-11-13T22:37:35.361Z,12.13
2022-11-13T22:40:03.776Z,12.15
2022-11-13T22:42:33.537Z,12.14
2022-11-13T22:45:04.418Z,12.14
2022-11-13T22:47:39.231Z,12.16
2022-11-13T22:50:08.451Z,12.14
2022-11-13T22:52:36.968Z,12.14
2022-11-13T22:55:06.445Z,12.14
2022-11-13T22:57:36.224Z,12.13
2022-11-13T23:00:09.466Z,12.13
2022-11-13T23:02:39.879Z,12.12
2022-11-13T23:05:11.655Z,12.11
2022-11-13T23:07:40.095Z,12.10
2022-11-13T23:10:11.141Z,12.09
2022-11-13T23:12:41.282Z,12.09
2022-11-13T23:15:11.504Z,12.09
2022-11-13T23:17:39.876Z,12.08
2022-11-13T23:20:10.339Z,12.08
2022-11-13T23:22:38.801Z,12.08
2022-11-13T23:25:08.292Z,12.08
2022-11-13T23:27:36.702Z,12.08
2022-11-13T23:30:08.370Z,12.07
2022-11-13T23:32:36.805Z,12.07
2022-11-13T23:35:05.593Z,12.07
2022-11-13T23:37:33.980Z,12.08
2022-11-13T23:40:02.372Z,12.08
2022-11-13T23:42:53.539Z,12.09
2022-11-13T23:45:20.533Z,12.09
2022-11-13T23:47:48.890Z,12.10
2022-11-13T23:50:17.480Z,12.10
2022-11-13T23:52:45.920Z,12.10
2022-11-13T23:55:14.262Z,12.10
2022-11-13T23:57:42.896Z,12.11
